Airfield :
LOGIN :

Register | Disclaimer

   EN    FR    IT 

 










Legend :    VFR   Marginal VFR   IFR   Intensive IFR   Very Intensive IFR
Visi :
Ceiling :
>= 8 km
>= 3000ft
5 to 8 km
1000 to 3000 ft
1500m to 5 km
500 to 1000 ft
800 to 1500m
200 to 500 ft
< 800m
< 200 ft
Symbols :   Thunderstorms  Fog  Heavy snow  Heavy precipitations  Wind > 20 kt
SIGMETs :     Misc.  Thunderstorms  Icing  Turbulence  Mountain Waves  Volcanic Ashes







- Airport Elevation : 121 ft
- IATA code : HUY
- Download approach charts


EGNJ - Humberside

CURRENT METAR :
  • 170920Z 21026KT 9999 FEW035 14/08 Q1014

EXPIRED METARs :
  • 170850Z 21025KT 9999 FEW035 14/08 Q1013
  • 170750Z 21022KT 9999 FEW035 13/07 Q1013
  • 170720Z 21020KT 9999 FEW035 12/07 Q1013
  • 170650Z 22025KT 9999 FEW035 12/08 Q1012

TAF TAF EGNJ
Valid from the 17 at 09:00 until the 17 at 18:00 UTC


170757Z 1709/1718 22018G30KT 9999 FEW035
BECMG 1711/1714 25013KT
ATIS : +44 1652 682 020
No reported NOTAMs for that airfield.
2 SIGMETs reported for the London FIR (EGTT) :
 
Severe mountain waves
EGTT SIGMET 05 VALID 170900/171100 EGRR
EGTT LONDON FIR SEV MTW FCST WI N5328 W00015 - N5229 W00431 - N5500 W00517 - N5500 W00100 - N5500 E00151 - N5328 W00015 FL040/200 STNR WKN=
Severe mountain waves
EGTT SIGMET 03 VALID 170500/170900 EGRR
EGTT LONDON FIR SEV MTW FCST WI N5220 W00530 - N5500 W00530 - N5500 E00115 - N5316 E00115 - N5124 W00259 - N5158 W00611 - N5220 W00530 FL030/200 MOV N 15KT WKN=



MET'MAP, your aeronautical weather chart ! - Copyright ORBIFLY December 2007 - Disclaimer

ORBIFLY MET'MAP TEAM :

Programming & Development : Alexandra Zaïnal
Concept & Development : Baudouin d'Aumeries
Co-Development & Prog : Marc-Olivier Méhu
Technical & hardware support : Manuel Goepfert

Contact : metmap@orbifly.com




SOURCES & CREDITS :

   NOAA